sensor_id;sensor_type;location;lat;lon;timestamp;pressure;altitude;pressure_sealevel;temperature
9985;BMP180;16737;50.932;6.780;2023-06-22T00:01:22;100533.00;;;27.60
9985;BMP180;16737;50.932;6.780;2023-06-22T00:03:49;100514.00;;;27.60
9985;BMP180;16737;50.932;6.780;2023-06-22T00:06:16;100528.00;;;27.60
9985;BMP180;16737;50.932;6.780;2023-06-22T00:08:44;100528.00;;;27.60
9985;BMP180;16737;50.932;6.780;2023-06-22T00:11:11;100536.00;;;27.60
9985;BMP180;16737;50.932;6.780;2023-06-22T00:13:39;100536.00;;;27.60
9985;BMP180;16737;50.932;6.780;2023-06-22T00:16:06;100540.00;;;27.60
9985;BMP180;16737;50.932;6.780;2023-06-22T00:18:33;100539.00;;;27.50
9985;BMP180;16737;50.932;6.780;2023-06-22T00:21:00;100538.00;;;27.50
9985;BMP180;16737;50.932;6.780;2023-06-22T00:23:27;100545.00;;;27.50
9985;BMP180;16737;50.932;6.780;2023-06-22T00:25:55;100545.00;;;27.50
9985;BMP180;16737;50.932;6.780;2023-06-22T00:28:22;100539.00;;;27.50
9985;BMP180;16737;50.932;6.780;2023-06-22T00:30:49;100543.00;;;27.50
9985;BMP180;16737;50.932;6.780;2023-06-22T00:33:16;100530.00;;;27.50
9985;BMP180;16737;50.932;6.780;2023-06-22T00:35:43;100520.00;;;27.50
9985;BMP180;16737;50.932;6.780;2023-06-22T00:38:11;100534.00;;;27.50
9985;BMP180;16737;50.932;6.780;2023-06-22T00:40:38;100535.00;;;27.50
9985;BMP180;16737;50.932;6.780;2023-06-22T00:43:07;100539.00;;;27.50
9985;BMP180;16737;50.932;6.780;2023-06-22T00:45:33;100545.00;;;27.50
9985;BMP180;16737;50.932;6.780;2023-06-22T00:48:01;100543.00;;;27.50
9985;BMP180;16737;50.932;6.780;2023-06-22T00:50:32;100540.00;;;27.40
9985;BMP180;16737;50.932;6.780;2023-06-22T00:53:01;100531.00;;;27.40
9985;BMP180;16737;50.932;6.780;2023-06-22T00:55:34;100543.00;;;27.40
9985;BMP180;16737;50.932;6.780;2023-06-22T00:58:06;100547.00;;;27.40
9985;BMP180;16737;50.932;6.780;2023-06-22T01:00:36;100546.00;;;27.40
9985;BMP180;16737;50.932;6.780;2023-06-22T01:03:06;100544.00;;;27.40
9985;BMP180;16737;50.932;6.780;2023-06-22T01:05:35;100539.00;;;27.40
9985;BMP180;16737;50.932;6.780;2023-06-22T01:08:20;100523.00;;;27.30
9985;BMP180;16737;50.932;6.780;2023-06-22T01:10:55;100522.00;;;27.40
9985;BMP180;16737;50.932;6.780;2023-06-22T01:13:34;100525.00;;;27.30
9985;BMP180;16737;50.932;6.780;2023-06-22T01:16:07;100526.00;;;27.30
9985;BMP180;16737;50.932;6.780;2023-06-22T01:18:40;100507.00;;;27.30
9985;BMP180;16737;50.932;6.780;2023-06-22T01:21:14;100518.00;;;27.30
9985;BMP180;16737;50.932;6.780;2023-06-22T01:23:57;100519.00;;;27.20
9985;BMP180;16737;50.932;6.780;2023-06-22T01:26:37;100522.00;;;27.20
9985;BMP180;16737;50.932;6.780;2023-06-22T01:29:11;100506.00;;;27.30
9985;BMP180;16737;50.932;6.780;2023-06-22T01:31:40;100505.00;;;27.20
9985;BMP180;16737;50.932;6.780;2023-06-22T01:34:10;100509.00;;;27.20
9985;BMP180;16737;50.932;6.780;2023-06-22T01:36:39;100503.00;;;27.20
9985;BMP180;16737;50.932;6.780;2023-06-22T01:39:07;100503.00;;;27.20
9985;BMP180;16737;50.932;6.780;2023-06-22T01:41:37;100500.00;;;27.20
9985;BMP180;16737;50.932;6.780;2023-06-22T01:44:08;100505.00;;;27.20
9985;BMP180;16737;50.932;6.780;2023-06-22T01:46:37;100503.00;;;27.20
9985;BMP180;16737;50.932;6.780;2023-06-22T01:49:05;100494.00;;;27.20
9985;BMP180;16737;50.932;6.780;2023-06-22T01:51:33;100493.00;;;27.20
9985;BMP180;16737;50.932;6.780;2023-06-22T01:54:01;100490.00;;;27.20
9985;BMP180;16737;50.932;6.780;2023-06-22T01:56:29;100490.00;;;27.20
9985;BMP180;16737;50.932;6.780;2023-06-22T01:59:03;100491.00;;;27.20
9985;BMP180;16737;50.932;6.780;2023-06-22T02:01:41;100479.00;;;27.10
9985;BMP180;16737;50.932;6.780;2023-06-22T02:04:19;100484.00;;;27.10
9985;BMP180;16737;50.932;6.780;2023-06-22T02:06:47;100476.00;;;27.20
9985;BMP180;16737;50.932;6.780;2023-06-22T02:09:20;100481.00;;;27.10
9985;BMP180;16737;50.932;6.780;2023-06-22T02:11:52;100482.00;;;27.10
9985;BMP180;16737;50.932;6.780;2023-06-22T02:14:21;100483.00;;;27.10
9985;BMP180;16737;50.932;6.780;2023-06-22T02:16:51;100480.00;;;27.10
9985;BMP180;16737;50.932;6.780;2023-06-22T02:19:23;100483.00;;;27.10
9985;BMP180;16737;50.932;6.780;2023-06-22T02:21:50;100483.00;;;27.10
9985;BMP180;16737;50.932;6.780;2023-06-22T02:24:17;100480.00;;;27.10
9985;BMP180;16737;50.932;6.780;2023-06-22T02:26:44;100458.00;;;27.10
9985;BMP180;16737;50.932;6.780;2023-06-22T02:29:12;100460.00;;;27.00
9985;BMP180;16737;50.932;6.780;2023-06-22T02:31:39;100480.00;;;27.00
9985;BMP180;16737;50.932;6.780;2023-06-22T02:34:07;100476.00;;;27.00
9985;BMP180;16737;50.932;6.780;2023-06-22T02:36:34;100475.00;;;27.00
9985;BMP180;16737;50.932;6.780;2023-06-22T02:39:01;100470.00;;;27.00
9985;BMP180;16737;50.932;6.780;2023-06-22T02:41:29;100473.00;;;27.00
9985;BMP180;16737;50.932;6.780;2023-06-22T02:43:56;100470.00;;;27.00
9985;BMP180;16737;50.932;6.780;2023-06-22T02:46:23;100472.00;;;27.00
9985;BMP180;16737;50.932;6.780;2023-06-22T02:48:50;100469.00;;;26.90
9985;BMP180;16737;50.932;6.780;2023-06-22T02:51:18;100453.00;;;26.90
9985;BMP180;16737;50.932;6.780;2023-06-22T02:53:46;100457.00;;;26.90
9985;BMP180;16737;50.932;6.780;2023-06-22T02:56:13;100459.00;;;26.90
9985;BMP180;16737;50.932;6.780;2023-06-22T02:58:40;100460.00;;;26.90
9985;BMP180;16737;50.932;6.780;2023-06-22T03:01:07;100448.00;;;26.90
9985;BMP180;16737;50.932;6.780;2023-06-22T03:03:34;100437.00;;;26.90
9985;BMP180;16737;50.932;6.780;2023-06-22T03:06:00;100444.00;;;26.90
9985;BMP180;16737;50.932;6.780;2023-06-22T03:08:29;100445.00;;;26.80
9985;BMP180;16737;50.932;6.780;2023-06-22T03:10:56;100448.00;;;26.90
9985;BMP180;16737;50.932;6.780;2023-06-22T03:13:23;100433.00;;;26.80
9985;BMP180;16737;50.932;6.780;2023-06-22T03:15:50;100436.00;;;26.80
9985;BMP180;16737;50.932;6.780;2023-06-22T03:18:18;100443.00;;;26.80
9985;BMP180;16737;50.932;6.780;2023-06-22T03:20:48;100438.00;;;26.80
9985;BMP180;16737;50.932;6.780;2023-06-22T03:23:15;100443.00;;;26.80
9985;BMP180;16737;50.932;6.780;2023-06-22T03:25:43;100435.00;;;26.80
9985;BMP180;16737;50.932;6.780;2023-06-22T03:28:11;100430.00;;;26.80
9985;BMP180;16737;50.932;6.780;2023-06-22T03:30:38;100433.00;;;26.80
9985;BMP180;16737;50.932;6.780;2023-06-22T03:33:05;100421.00;;;26.80
9985;BMP180;16737;50.932;6.780;2023-06-22T03:35:31;100416.00;;;26.80
9985;BMP180;16737;50.932;6.780;2023-06-22T03:37:58;100418.00;;;26.80
9985;BMP180;16737;50.932;6.780;2023-06-22T03:40:25;100418.00;;;26.70
9985;BMP180;16737;50.932;6.780;2023-06-22T03:42:54;100417.00;;;26.70
9985;BMP180;16737;50.932;6.780;2023-06-22T03:45:20;100409.00;;;26.70
9985;BMP180;16737;50.932;6.780;2023-06-22T03:47:47;100407.00;;;26.70
9985;BMP180;16737;50.932;6.780;2023-06-22T03:50:14;100402.00;;;26.70
9985;BMP180;16737;50.932;6.780;2023-06-22T03:52:41;100399.00;;;26.60
9985;BMP180;16737;50.932;6.780;2023-06-22T03:55:11;100401.00;;;26.60
9985;BMP180;16737;50.932;6.780;2023-06-22T03:57:38;100409.00;;;26.60
9985;BMP180;16737;50.932;6.780;2023-06-22T04:00:08;100403.00;;;26.60
9985;BMP180;16737;50.932;6.780;2023-06-22T04:02:36;100400.00;;;26.60
9985;BMP180;16737;50.932;6.780;2023-06-22T04:05:03;100406.00;;;26.50
9985;BMP180;16737;50.932;6.780;2023-06-22T04:07:30;100399.00;;;26.50
9985;BMP180;16737;50.932;6.780;2023-06-22T04:09:57;100404.00;;;26.50
9985;BMP180;16737;50.932;6.780;2023-06-22T04:12:24;100398.00;;;26.50
9985;BMP180;16737;50.932;6.780;2023-06-22T04:14:51;100397.00;;;26.50
9985;BMP180;16737;50.932;6.780;2023-06-22T04:17:19;100402.00;;;26.50
9985;BMP180;16737;50.932;6.780;2023-06-22T04:19:46;100388.00;;;26.50
9985;BMP180;16737;50.932;6.780;2023-06-22T04:22:13;100400.00;;;26.50
9985;BMP180;16737;50.932;6.780;2023-06-22T04:24:40;100409.00;;;26.50
9985;BMP180;16737;50.932;6.780;2023-06-22T04:27:07;100410.00;;;26.50
9985;BMP180;16737;50.932;6.780;2023-06-22T04:29:34;100418.00;;;26.50
9985;BMP180;16737;50.932;6.780;2023-06-22T04:32:01;100421.00;;;26.50
9985;BMP180;16737;50.932;6.780;2023-06-22T04:34:32;100411.00;;;26.50
9985;BMP180;16737;50.932;6.780;2023-06-22T04:36:59;100422.00;;;26.50
9985;BMP180;16737;50.932;6.780;2023-06-22T04:39:25;100423.00;;;26.50
9985;BMP180;16737;50.932;6.780;2023-06-22T04:41:53;100433.00;;;26.50
9985;BMP180;16737;50.932;6.780;2023-06-22T04:44:25;100419.00;;;26.50
9985;BMP180;16737;50.932;6.780;2023-06-22T04:46:54;100435.00;;;26.50
9985;BMP180;16737;50.932;6.780;2023-06-22T04:49:26;100434.00;;;26.50
9985;BMP180;16737;50.932;6.780;2023-06-22T04:52:00;100437.00;;;26.50
9985;BMP180;16737;50.932;6.780;2023-06-22T04:54:27;100431.00;;;26.50
9985;BMP180;16737;50.932;6.780;2023-06-22T04:56:54;100430.00;;;26.50
9985;BMP180;16737;50.932;6.780;2023-06-22T04:59:23;100427.00;;;26.50
9985;BMP180;16737;50.932;6.780;2023-06-22T05:01:54;100421.00;;;26.50
9985;BMP180;16737;50.932;6.780;2023-06-22T05:04:22;100427.00;;;26.50
9985;BMP180;16737;50.932;6.780;2023-06-22T05:06:49;100404.00;;;26.50
9985;BMP180;16737;50.932;6.780;2023-06-22T05:09:18;100418.00;;;26.60
9985;BMP180;16737;50.932;6.780;2023-06-22T05:11:46;100409.00;;;26.50
9985;BMP180;16737;50.932;6.780;2023-06-22T05:14:14;100412.00;;;26.60
9985;BMP180;16737;50.932;6.780;2023-06-22T05:16:42;100410.00;;;26.60
9985;BMP180;16737;50.932;6.780;2023-06-22T05:19:09;100405.00;;;26.60
9985;BMP180;16737;50.932;6.780;2023-06-22T05:21:36;100407.00;;;26.60
9985;BMP180;16737;50.932;6.780;2023-06-22T05:24:04;100405.00;;;26.60
9985;BMP180;16737;50.932;6.780;2023-06-22T05:26:34;100409.00;;;26.50
9985;BMP180;16737;50.932;6.780;2023-06-22T05:29:02;100412.00;;;26.50
9985;BMP180;16737;50.932;6.780;2023-06-22T05:31:30;100414.00;;;26.50
9985;BMP180;16737;50.932;6.780;2023-06-22T05:33:57;100415.00;;;26.60
9985;BMP180;16737;50.932;6.780;2023-06-22T05:36:25;100412.00;;;26.50
9985;BMP180;16737;50.932;6.780;2023-06-22T05:38:53;100413.00;;;26.60
9985;BMP180;16737;50.932;6.780;2023-06-22T05:41:20;100410.00;;;26.60
9985;BMP180;16737;50.932;6.780;2023-06-22T05:43:48;100417.00;;;26.60
9985;BMP180;16737;50.932;6.780;2023-06-22T05:46:15;100419.00;;;26.60
9985;BMP180;16737;50.932;6.780;2023-06-22T05:48:42;100421.00;;;26.70
9985;BMP180;16737;50.932;6.780;2023-06-22T05:51:10;100398.00;;;26.70
9985;BMP180;16737;50.932;6.780;2023-06-22T05:53:37;100415.00;;;26.70
9985;BMP180;16737;50.932;6.780;2023-06-22T05:56:04;100420.00;;;26.70
9985;BMP180;16737;50.932;6.780;2023-06-22T05:58:31;100423.00;;;26.70
9985;BMP180;16737;50.932;6.780;2023-06-22T06:00:59;100397.00;;;26.70
9985;BMP180;16737;50.932;6.780;2023-06-22T06:03:26;100418.00;;;26.80
9985;BMP180;16737;50.932;6.780;2023-06-22T06:05:54;100421.00;;;26.80
9985;BMP180;16737;50.932;6.780;2023-06-22T06:08:21;100426.00;;;26.80
9985;BMP180;16737;50.932;6.780;2023-06-22T06:10:48;100426.00;;;26.80
9985;BMP180;16737;50.932;6.780;2023-06-22T06:13:15;100424.00;;;26.90
9985;BMP180;16737;50.932;6.780;2023-06-22T06:15:42;100429.00;;;26.90
9985;BMP180;16737;50.932;6.780;2023-06-22T06:18:10;100428.00;;;27.00
9985;BMP180;16737;50.932;6.780;2023-06-22T06:20:37;100413.00;;;27.00
9985;BMP180;16737;50.932;6.780;2023-06-22T06:23:04;100425.00;;;27.00
9985;BMP180;16737;50.932;6.780;2023-06-22T06:25:31;100443.00;;;27.00
9985;BMP180;16737;50.932;6.780;2023-06-22T06:27:58;100419.00;;;27.10
9985;BMP180;16737;50.932;6.780;2023-06-22T06:30:25;100454.00;;;27.10
9985;BMP180;16737;50.932;6.780;2023-06-22T06:32:52;100450.00;;;27.10
9985;BMP180;16737;50.932;6.780;2023-06-22T06:35:21;100447.00;;;27.20
9985;BMP180;16737;50.932;6.780;2023-06-22T06:37:49;100452.00;;;27.20
9985;BMP180;16737;50.932;6.780;2023-06-22T06:40:18;100447.00;;;27.20
9985;BMP180;16737;50.932;6.780;2023-06-22T06:42:47;100442.00;;;27.30
9985;BMP180;16737;50.932;6.780;2023-06-22T06:45:18;100430.00;;;27.30
9985;BMP180;16737;50.932;6.780;2023-06-22T06:47:46;100441.00;;;27.40
9985;BMP180;16737;50.932;6.780;2023-06-22T06:50:13;100401.00;;;27.40
9985;BMP180;16737;50.932;6.780;2023-06-22T06:52:41;100403.00;;;27.40
9985;BMP180;16737;50.932;6.780;2023-06-22T06:55:09;100426.00;;;27.50
9985;BMP180;16737;50.932;6.780;2023-06-22T06:57:37;100407.00;;;27.60
9985;BMP180;16737;50.932;6.780;2023-06-22T07:00:06;100404.00;;;27.60
9985;BMP180;16737;50.932;6.780;2023-06-22T07:02:38;100418.00;;;27.60
9985;BMP180;16737;50.932;6.780;2023-06-22T07:05:06;100411.00;;;27.70
9985;BMP180;16737;50.932;6.780;2023-06-22T07:07:33;100419.00;;;27.80
9985;BMP180;16737;50.932;6.780;2023-06-22T07:10:02;100416.00;;;27.80
9985;BMP180;16737;50.932;6.780;2023-06-22T07:12:29;100407.00;;;27.90
9985;BMP180;16737;50.932;6.780;2023-06-22T07:15:02;100398.00;;;27.90
9985;BMP180;16737;50.932;6.780;2023-06-22T07:17:29;100393.00;;;28.00
9985;BMP180;16737;50.932;6.780;2023-06-22T07:19:56;100386.00;;;28.00
9985;BMP180;16737;50.932;6.780;2023-06-22T07:22:23;100383.00;;;28.10
9985;BMP180;16737;50.932;6.780;2023-06-22T07:24:51;100382.00;;;28.10
9985;BMP180;16737;50.932;6.780;2023-06-22T07:27:19;100384.00;;;28.20
9985;BMP180;16737;50.932;6.780;2023-06-22T07:29:46;100382.00;;;28.20
9985;BMP180;16737;50.932;6.780;2023-06-22T07:32:13;100377.00;;;28.20
9985;BMP180;16737;50.932;6.780;2023-06-22T07:34:40;100382.00;;;28.30
9985;BMP180;16737;50.932;6.780;2023-06-22T07:37:08;100369.00;;;28.30
9985;BMP180;16737;50.932;6.780;2023-06-22T07:39:36;100364.00;;;28.30
9985;BMP180;16737;50.932;6.780;2023-06-22T07:42:04;100349.00;;;28.40
9985;BMP180;16737;50.932;6.780;2023-06-22T07:44:33;100352.00;;;28.40
9985;BMP180;16737;50.932;6.780;2023-06-22T07:47:00;100366.00;;;28.40
9985;BMP180;16737;50.932;6.780;2023-06-22T07:49:28;100364.00;;;28.50
9985;BMP180;16737;50.932;6.780;2023-06-22T07:51:55;100365.00;;;28.50
9985;BMP180;16737;50.932;6.780;2023-06-22T07:54:22;100371.00;;;28.60
9985;BMP180;16737;50.932;6.780;2023-06-22T07:56:49;100369.00;;;28.60
9985;BMP180;16737;50.932;6.780;2023-06-22T07:59:16;100359.00;;;28.60
9985;BMP180;16737;50.932;6.780;2023-06-22T08:01:44;100348.00;;;28.60
9985;BMP180;16737;50.932;6.780;2023-06-22T08:04:11;100347.00;;;28.70
9985;BMP180;16737;50.932;6.780;2023-06-22T08:06:38;100341.00;;;28.70
9985;BMP180;16737;50.932;6.780;2023-06-22T08:09:05;100335.00;;;28.70
9985;BMP180;16737;50.932;6.780;2023-06-22T08:11:32;100333.00;;;28.70
9985;BMP180;16737;50.932;6.780;2023-06-22T08:13:59;100336.00;;;28.80
9985;BMP180;16737;50.932;6.780;2023-06-22T08:16:26;100316.00;;;28.80
9985;BMP180;16737;50.932;6.780;2023-06-22T08:18:54;100317.00;;;28.90
9985;BMP180;16737;50.932;6.780;2023-06-22T08:21:22;100315.00;;;28.90
9985;BMP180;16737;50.932;6.780;2023-06-22T08:23:49;100313.00;;;29.00
9985;BMP180;16737;50.932;6.780;2023-06-22T08:26:16;100314.00;;;29.10
9985;BMP180;16737;50.932;6.780;2023-06-22T08:28:43;100309.00;;;29.20
9985;BMP180;16737;50.932;6.780;2023-06-22T08:31:10;100310.00;;;29.20
9985;BMP180;16737;50.932;6.780;2023-06-22T08:33:38;100306.00;;;29.30
9985;BMP180;16737;50.932;6.780;2023-06-22T08:36:06;100307.00;;;29.50
9985;BMP180;16737;50.932;6.780;2023-06-22T08:38:33;100306.00;;;29.60
9985;BMP180;16737;50.932;6.780;2023-06-22T08:41:00;100304.00;;;29.60
9985;BMP180;16737;50.932;6.780;2023-06-22T08:43:28;100292.00;;;29.70
9985;BMP180;16737;50.932;6.780;2023-06-22T08:45:55;100279.00;;;29.80
9985;BMP180;16737;50.932;6.780;2023-06-22T08:48:22;100272.00;;;29.90
9985;BMP180;16737;50.932;6.780;2023-06-22T08:50:49;100271.00;;;30.00
9985;BMP180;16737;50.932;6.780;2023-06-22T08:53:17;100267.00;;;30.10
9985;BMP180;16737;50.932;6.780;2023-06-22T08:55:44;100271.00;;;30.30
9985;BMP180;16737;50.932;6.780;2023-06-22T08:58:11;100276.00;;;30.40
9985;BMP180;16737;50.932;6.780;2023-06-22T09:00:38;100286.00;;;30.50
9985;BMP180;16737;50.932;6.780;2023-06-22T09:03:05;100273.00;;;30.60
9985;BMP180;16737;50.932;6.780;2023-06-22T09:05:32;100272.00;;;30.70
9985;BMP180;16737;50.932;6.780;2023-06-22T09:07:59;100241.00;;;30.80
9985;BMP180;16737;50.932;6.780;2023-06-22T09:10:29;100280.00;;;31.00
9985;BMP180;16737;50.932;6.780;2023-06-22T09:12:57;100263.00;;;31.00
9985;BMP180;16737;50.932;6.780;2023-06-22T09:15:24;100266.00;;;31.10
9985;BMP180;16737;50.932;6.780;2023-06-22T09:17:51;100258.00;;;31.20
9985;BMP180;16737;50.932;6.780;2023-06-22T09:20:20;100255.00;;;31.30
9985;BMP180;16737;50.932;6.780;2023-06-22T09:22:47;100249.00;;;31.40
9985;BMP180;16737;50.932;6.780;2023-06-22T09:25:14;100250.00;;;31.50
9985;BMP180;16737;50.932;6.780;2023-06-22T09:27:42;100239.00;;;31.60
9985;BMP180;16737;50.932;6.780;2023-06-22T09:30:10;100230.00;;;31.60
9985;BMP180;16737;50.932;6.780;2023-06-22T09:32:37;100227.00;;;31.60
9985;BMP180;16737;50.932;6.780;2023-06-22T09:35:06;100221.00;;;31.70
9985;BMP180;16737;50.932;6.780;2023-06-22T09:37:34;100222.00;;;31.80
9985;BMP180;16737;50.932;6.780;2023-06-22T09:40:01;100225.00;;;31.80
9985;BMP180;16737;50.932;6.780;2023-06-22T09:42:32;100219.00;;;32.00
9985;BMP180;16737;50.932;6.780;2023-06-22T09:45:01;100225.00;;;32.10
9985;BMP180;16737;50.932;6.780;2023-06-22T09:47:29;100235.00;;;32.20
9985;BMP180;16737;50.932;6.780;2023-06-22T09:49:56;100223.00;;;32.30
9985;BMP180;16737;50.932;6.780;2023-06-22T09:52:25;100227.00;;;32.40
9985;BMP180;16737;50.932;6.780;2023-06-22T09:54:52;100228.00;;;32.50
9985;BMP180;16737;50.932;6.780;2023-06-22T09:57:19;100232.00;;;32.60
9985;BMP180;16737;50.932;6.780;2023-06-22T09:59:46;100231.00;;;32.60
9985;BMP180;16737;50.932;6.780;2023-06-22T10:02:14;100231.00;;;32.60
9985;BMP180;16737;50.932;6.780;2023-06-22T10:04:42;100242.00;;;32.60
9985;BMP180;16737;50.932;6.780;2023-06-22T10:07:08;100249.00;;;32.60
9985;BMP180;16737;50.932;6.780;2023-06-22T10:09:35;100261.00;;;32.60
9985;BMP180;16737;50.932;6.780;2023-06-22T10:12:03;100287.00;;;32.50
9985;BMP180;16737;50.932;6.780;2023-06-22T10:14:30;100300.00;;;32.40
9985;BMP180;16737;50.932;6.780;2023-06-22T10:16:57;100288.00;;;32.40
9985;BMP180;16737;50.932;6.780;2023-06-22T10:19:25;100309.00;;;32.30
9985;BMP180;16737;50.932;6.780;2023-06-22T10:21:52;100311.00;;;32.10
9985;BMP180;16737;50.932;6.780;2023-06-22T10:24:19;100317.00;;;32.00
9985;BMP180;16737;50.932;6.780;2023-06-22T10:26:49;100311.00;;;31.90
9985;BMP180;16737;50.932;6.780;2023-06-22T10:29:16;100335.00;;;31.90
9985;BMP180;16737;50.932;6.780;2023-06-22T10:31:43;100351.00;;;31.80
9985;BMP180;16737;50.932;6.780;2023-06-22T10:34:10;100346.00;;;31.70
9985;BMP180;16737;50.932;6.780;2023-06-22T10:36:38;100363.00;;;31.60
9985;BMP180;16737;50.932;6.780;2023-06-22T10:39:06;100368.00;;;31.50
9985;BMP180;16737;50.932;6.780;2023-06-22T10:41:33;100356.00;;;31.40
9985;BMP180;16737;50.932;6.780;2023-06-22T10:44:00;100360.00;;;31.30
9985;BMP180;16737;50.932;6.780;2023-06-22T10:46:26;100368.00;;;31.20
9985;BMP180;16737;50.932;6.780;2023-06-22T10:48:53;100369.00;;;31.10
9985;BMP180;16737;50.932;6.780;2023-06-22T10:51:22;100369.00;;;31.00
9985;BMP180;16737;50.932;6.780;2023-06-22T10:53:51;100347.00;;;30.90
9985;BMP180;16737;50.932;6.780;2023-06-22T10:56:19;100341.00;;;30.80
9985;BMP180;16737;50.932;6.780;2023-06-22T10:58:46;100331.00;;;30.70
9985;BMP180;16737;50.932;6.780;2023-06-22T11:01:13;100323.00;;;30.60
9985;BMP180;16737;50.932;6.780;2023-06-22T11:03:41;100316.00;;;30.50
9985;BMP180;16737;50.932;6.780;2023-06-22T11:06:07;100305.00;;;30.40
9985;BMP180;16737;50.932;6.780;2023-06-22T11:08:35;100293.00;;;30.30
9985;BMP180;16737;50.932;6.780;2023-06-22T11:11:03;100275.00;;;30.20
9985;BMP180;16737;50.932;6.780;2023-06-22T11:13:30;100296.00;;;30.10
9985;BMP180;16737;50.932;6.780;2023-06-22T11:15:57;100287.00;;;30.10
9985;BMP180;16737;50.932;6.780;2023-06-22T11:18:24;100254.00;;;30.00
9985;BMP180;16737;50.932;6.780;2023-06-22T11:20:51;100255.00;;;29.90
9985;BMP180;16737;50.932;6.780;2023-06-22T11:23:19;100245.00;;;29.80
9985;BMP180;16737;50.932;6.780;2023-06-22T11:25:46;100227.00;;;29.70
9985;BMP180;16737;50.932;6.780;2023-06-22T11:28:15;100218.00;;;29.60
9985;BMP180;16737;50.932;6.780;2023-06-22T11:30:41;100207.00;;;29.50
9985;BMP180;16737;50.932;6.780;2023-06-22T11:33:08;100178.00;;;29.40
9985;BMP180;16737;50.932;6.780;2023-06-22T11:35:35;100179.00;;;29.40
9985;BMP180;16737;50.932;6.780;2023-06-22T11:38:03;100169.00;;;29.30
9985;BMP180;16737;50.932;6.780;2023-06-22T11:40:31;100148.00;;;29.30
9985;BMP180;16737;50.932;6.780;2023-06-22T11:42:58;100152.00;;;29.20
9985;BMP180;16737;50.932;6.780;2023-06-22T11:45:27;100121.00;;;29.20
9985;BMP180;16737;50.932;6.780;2023-06-22T11:47:54;100113.00;;;29.10
9985;BMP180;16737;50.932;6.780;2023-06-22T11:50:22;100125.00;;;29.00
9985;BMP180;16737;50.932;6.780;2023-06-22T11:52:49;100136.00;;;28.90
9985;BMP180;16737;50.932;6.780;2023-06-22T11:55:16;100167.00;;;28.90
9985;BMP180;16737;50.932;6.780;2023-06-22T11:57:54;100170.00;;;28.80
9985;BMP180;16737;50.932;6.780;2023-06-22T12:00:22;100163.00;;;28.90
9985;BMP180;16737;50.932;6.780;2023-06-22T12:02:51;100167.00;;;28.90
9985;BMP180;16737;50.932;6.780;2023-06-22T12:05:20;100159.00;;;29.00
9985;BMP180;16737;50.932;6.780;2023-06-22T12:07:47;100166.00;;;29.00
9985;BMP180;16737;50.932;6.780;2023-06-22T12:10:15;100161.00;;;29.10
9985;BMP180;16737;50.932;6.780;2023-06-22T12:12:42;100159.00;;;29.10
9985;BMP180;16737;50.932;6.780;2023-06-22T12:15:10;100147.00;;;29.10
9985;BMP180;16737;50.932;6.780;2023-06-22T12:17:37;100134.00;;;29.00
9985;BMP180;16737;50.932;6.780;2023-06-22T12:20:08;100121.00;;;29.00
9985;BMP180;16737;50.932;6.780;2023-06-22T12:22:35;100108.00;;;29.00
9985;BMP180;16737;50.932;6.780;2023-06-22T12:25:04;100120.00;;;29.00
9985;BMP180;16737;50.932;6.780;2023-06-22T12:27:31;100122.00;;;29.00
9985;BMP180;16737;50.932;6.780;2023-06-22T12:29:58;100105.00;;;29.00
9985;BMP180;16737;50.932;6.780;2023-06-22T12:32:28;100109.00;;;29.00
9985;BMP180;16737;50.932;6.780;2023-06-22T12:34:56;100107.00;;;29.00
9985;BMP180;16737;50.932;6.780;2023-06-22T12:37:24;100090.00;;;29.00
9985;BMP180;16737;50.932;6.780;2023-06-22T12:39:51;100088.00;;;29.00
9985;BMP180;16737;50.932;6.780;2023-06-22T12:42:18;100083.00;;;29.00
9985;BMP180;16737;50.932;6.780;2023-06-22T12:44:46;100087.00;;;28.90
9985;BMP180;16737;50.932;6.780;2023-06-22T12:47:13;100092.00;;;28.90
9985;BMP180;16737;50.932;6.780;2023-06-22T12:49:40;100087.00;;;28.90
9985;BMP180;16737;50.932;6.780;2023-06-22T12:52:09;100088.00;;;28.90
9985;BMP180;16737;50.932;6.780;2023-06-22T12:54:38;100077.00;;;28.90
9985;BMP180;16737;50.932;6.780;2023-06-22T12:57:06;100080.00;;;28.90
9985;BMP180;16737;50.932;6.780;2023-06-22T12:59:33;100070.00;;;28.90
9985;BMP180;16737;50.932;6.780;2023-06-22T13:02:00;100073.00;;;28.90
9985;BMP180;16737;50.932;6.780;2023-06-22T13:04:27;100073.00;;;28.90
9985;BMP180;16737;50.932;6.780;2023-06-22T13:06:54;100066.00;;;29.00
9985;BMP180;16737;50.932;6.780;2023-06-22T13:09:20;100047.00;;;29.00
9985;BMP180;16737;50.932;6.780;2023-06-22T13:11:49;100055.00;;;28.90
9985;BMP180;16737;50.932;6.780;2023-06-22T13:14:18;100044.00;;;29.00
9985;BMP180;16737;50.932;6.780;2023-06-22T13:16:45;100043.00;;;29.00
9985;BMP180;16737;50.932;6.780;2023-06-22T13:19:11;100051.00;;;29.10
9985;BMP180;16737;50.932;6.780;2023-06-22T13:21:38;100039.00;;;29.10
9985;BMP180;16737;50.932;6.780;2023-06-22T13:24:06;100037.00;;;29.20
9985;BMP180;16737;50.932;6.780;2023-06-22T13:26:33;100038.00;;;29.20
9985;BMP180;16737;50.932;6.780;2023-06-22T13:29:02;100030.00;;;29.30
9985;BMP180;16737;50.932;6.780;2023-06-22T13:31:29;100030.00;;;29.30
9985;BMP180;16737;50.932;6.780;2023-06-22T13:33:55;100033.00;;;29.40
9985;BMP180;16737;50.932;6.780;2023-06-22T13:36:22;100009.00;;;29.40
9985;BMP180;16737;50.932;6.780;2023-06-22T13:38:50;100012.00;;;29.40
9985;BMP180;16737;50.932;6.780;2023-06-22T13:41:17;99989.00;;;29.40
9985;BMP180;16737;50.932;6.780;2023-06-22T13:43:44;99980.00;;;29.50
9985;BMP180;16737;50.932;6.780;2023-06-22T13:46:12;99981.00;;;29.50
9985;BMP180;16737;50.932;6.780;2023-06-22T13:48:39;99981.00;;;29.60
9985;BMP180;16737;50.932;6.780;2023-06-22T13:51:06;99966.00;;;29.70
9985;BMP180;16737;50.932;6.780;2023-06-22T13:53:33;99960.00;;;29.80
9985;BMP180;16737;50.932;6.780;2023-06-22T13:56:00;99955.00;;;29.90
9985;BMP180;16737;50.932;6.780;2023-06-22T13:58:27;99946.00;;;30.00
9985;BMP180;16737;50.932;6.780;2023-06-22T14:00:54;99944.00;;;30.10
9985;BMP180;16737;50.932;6.780;2023-06-22T14:03:22;99925.00;;;30.10
9985;BMP180;16737;50.932;6.780;2023-06-22T14:05:49;99919.00;;;30.20
9985;BMP180;16737;50.932;6.780;2023-06-22T14:08:19;99909.00;;;30.20
9985;BMP180;16737;50.932;6.780;2023-06-22T14:10:49;99900.00;;;30.20
9985;BMP180;16737;50.932;6.780;2023-06-22T14:13:16;99893.00;;;30.20